sensor_id;sensor_type;location;lat;lon;timestamp;P1;durP1;ratioP1;P2;durP2;ratioP2
46713;SDS011;32445;51.376;10.874;2023-10-31T00:03:10;11.63;;;7.37;;
46713;SDS011;32445;51.376;10.874;2023-10-31T00:08:10;11.30;;;6.78;;
46713;SDS011;32445;51.376;10.874;2023-10-31T00:13:11;8.93;;;5.23;;
46713;SDS011;32445;51.376;10.874;2023-10-31T00:18:11;10.98;;;6.22;;
46713;SDS011;32445;51.376;10.874;2023-10-31T00:23:12;8.93;;;6.30;;
46713;SDS011;32445;51.376;10.874;2023-10-31T00:28:12;10.47;;;5.87;;
46713;SDS011;32445;51.376;10.874;2023-10-31T00:33:12;6.30;;;4.30;;
46713;SDS011;32445;51.376;10.874;2023-10-31T00:38:13;11.30;;;5.60;;
46713;SDS011;32445;51.376;10.874;2023-10-31T00:43:13;6.23;;;3.73;;
46713;SDS011;32445;51.376;10.874;2023-10-31T00:48:13;4.53;;;3.30;;
46713;SDS011;32445;51.376;10.874;2023-10-31T00:53:14;5.47;;;2.60;;
46713;SDS011;32445;51.376;10.874;2023-10-31T00:58:15;4.25;;;2.50;;
46713;SDS011;32445;51.376;10.874;2023-10-31T01:03:15;5.07;;;3.47;;
46713;SDS011;32445;51.376;10.874;2023-10-31T01:08:16;3.70;;;2.20;;
46713;SDS011;32445;51.376;10.874;2023-10-31T01:13:16;2.90;;;2.13;;
46713;SDS011;32445;51.376;10.874;2023-10-31T01:18:16;4.57;;;2.43;;
46713;SDS011;32445;51.376;10.874;2023-10-31T01:23:17;3.50;;;2.20;;
46713;SDS011;32445;51.376;10.874;2023-10-31T01:28:17;3.03;;;2.10;;
46713;SDS011;32445;51.376;10.874;2023-10-31T01:33:17;4.40;;;2.33;;
46713;SDS011;32445;51.376;10.874;2023-10-31T01:38:18;5.13;;;2.50;;
46713;SDS011;32445;51.376;10.874;2023-10-31T01:43:51;5.88;;;2.70;;
46713;SDS011;32445;51.376;10.874;2023-10-31T01:48:45;4.75;;;2.65;;
46713;SDS011;32445;51.376;10.874;2023-10-31T01:53:46;5.15;;;2.55;;
46713;SDS011;32445;51.376;10.874;2023-10-31T01:58:47;3.25;;;1.92;;
46713;SDS011;32445;51.376;10.874;2023-10-31T02:03:49;2.70;;;2.00;;
46713;SDS011;32445;51.376;10.874;2023-10-31T02:08:49;2.77;;;2.00;;
46713;SDS011;32445;51.376;10.874;2023-10-31T02:13:50;3.30;;;2.00;;
46713;SDS011;32445;51.376;10.874;2023-10-31T02:18:50;2.90;;;1.80;;
46713;SDS011;32445;51.376;10.874;2023-10-31T02:24:00;3.20;;;2.40;;
46713;SDS011;32445;51.376;10.874;2023-10-31T02:29:02;3.03;;;2.17;;
46713;SDS011;32445;51.376;10.874;2023-10-31T02:34:03;4.22;;;2.50;;
46713;SDS011;32445;51.376;10.874;2023-10-31T02:39:04;3.13;;;2.27;;
46713;SDS011;32445;51.376;10.874;2023-10-31T02:44:04;3.73;;;2.50;;
46713;SDS011;32445;51.376;10.874;2023-10-31T02:49:04;2.93;;;2.50;;
46713;SDS011;32445;51.376;10.874;2023-10-31T02:54:05;4.77;;;2.10;;
46713;SDS011;32445;51.376;10.874;2023-10-31T02:59:05;3.65;;;2.60;;
46713;SDS011;32445;51.376;10.874;2023-10-31T03:04:06;3.22;;;2.28;;
46713;SDS011;32445;51.376;10.874;2023-10-31T03:09:06;3.27;;;2.47;;
46713;SDS011;32445;51.376;10.874;2023-10-31T03:14:07;3.90;;;2.60;;
46713;SDS011;32445;51.376;10.874;2023-10-31T03:19:07;4.27;;;2.67;;
46713;SDS011;32445;51.376;10.874;2023-10-31T03:24:08;4.82;;;2.83;;
46713;SDS011;32445;51.376;10.874;2023-10-31T03:29:08;12.17;;;2.63;;
46713;SDS011;32445;51.376;10.874;2023-10-31T03:34:08;3.08;;;2.50;;
46713;SDS011;32445;51.376;10.874;2023-10-31T03:39:09;3.97;;;2.80;;
46713;SDS011;32445;51.376;10.874;2023-10-31T03:44:09;3.80;;;2.70;;
46713;SDS011;32445;51.376;10.874;2023-10-31T03:49:09;3.70;;;2.43;;
46713;SDS011;32445;51.376;10.874;2023-10-31T03:54:10;5.93;;;2.23;;
46713;SDS011;32445;51.376;10.874;2023-10-31T03:59:10;4.82;;;2.65;;
46713;SDS011;32445;51.376;10.874;2023-10-31T04:04:11;1.40;;;1.10;;
46713;SDS011;32445;51.376;10.874;2023-10-31T04:09:11;1.00;;;0.70;;
46713;SDS011;32445;51.376;10.874;2023-10-31T04:14:11;2.53;;;0.97;;
46713;SDS011;32445;51.376;10.874;2023-10-31T04:19:12;1.80;;;0.90;;
46713;SDS011;32445;51.376;10.874;2023-10-31T04:24:13;2.47;;;0.90;;
46713;SDS011;32445;51.376;10.874;2023-10-31T04:29:13;1.50;;;1.00;;
46713;SDS011;32445;51.376;10.874;2023-10-31T04:34:14;2.30;;;1.07;;
46713;SDS011;32445;51.376;10.874;2023-10-31T04:39:14;4.00;;;1.20;;
46713;SDS011;32445;51.376;10.874;2023-10-31T04:44:15;1.30;;;0.88;;
46713;SDS011;32445;51.376;10.874;2023-10-31T04:49:16;1.70;;;1.10;;
46713;SDS011;32445;51.376;10.874;2023-10-31T04:54:17;1.60;;;1.10;;
46713;SDS011;32445;51.376;10.874;2023-10-31T04:59:17;1.40;;;1.05;;
46713;SDS011;32445;51.376;10.874;2023-10-31T05:04:17;2.27;;;1.07;;
46713;SDS011;32445;51.376;10.874;2023-10-31T05:09:18;1.52;;;0.80;;
46713;SDS011;32445;51.376;10.874;2023-10-31T05:14:20;5.53;;;1.10;;
46713;SDS011;32445;51.376;10.874;2023-10-31T05:19:20;1.00;;;0.73;;
46713;SDS011;32445;51.376;10.874;2023-10-31T05:24:20;1.50;;;1.00;;
46713;SDS011;32445;51.376;10.874;2023-10-31T05:29:21;2.17;;;1.00;;
46713;SDS011;32445;51.376;10.874;2023-10-31T05:34:21;1.63;;;0.90;;
46713;SDS011;32445;51.376;10.874;2023-10-31T05:39:21;3.20;;;1.00;;
46713;SDS011;32445;51.376;10.874;2023-10-31T05:44:22;2.40;;;1.10;;
46713;SDS011;32445;51.376;10.874;2023-10-31T05:49:22;1.53;;;1.10;;
46713;SDS011;32445;51.376;10.874;2023-10-31T05:54:22;3.25;;;1.30;;
46713;SDS011;32445;51.376;10.874;2023-10-31T05:59:23;1.30;;;1.03;;
46713;SDS011;32445;51.376;10.874;2023-10-31T06:04:23;1.80;;;1.10;;
46713;SDS011;32445;51.376;10.874;2023-10-31T06:09:25;2.45;;;1.15;;
46713;SDS011;32445;51.376;10.874;2023-10-31T06:14:25;2.13;;;1.30;;
46713;SDS011;32445;51.376;10.874;2023-10-31T06:19:25;1.53;;;1.10;;
46713;SDS011;32445;51.376;10.874;2023-10-31T06:24:26;2.03;;;1.27;;
46713;SDS011;32445;51.376;10.874;2023-10-31T06:29:26;1.60;;;0.93;;
46713;SDS011;32445;51.376;10.874;2023-10-31T06:34:29;2.40;;;1.23;;
46713;SDS011;32445;51.376;10.874;2023-10-31T06:39:29;2.42;;;1.00;;
46713;SDS011;32445;51.376;10.874;2023-10-31T06:44:32;1.70;;;1.00;;
46713;SDS011;32445;51.376;10.874;2023-10-31T06:49:32;1.67;;;1.10;;
46713;SDS011;32445;51.376;10.874;2023-10-31T06:54:33;14.53;;;7.80;;
46713;SDS011;32445;51.376;10.874;2023-10-31T06:59:35;5.30;;;3.33;;
46713;SDS011;32445;51.376;10.874;2023-10-31T07:04:35;1.93;;;1.20;;
46713;SDS011;32445;51.376;10.874;2023-10-31T07:09:35;2.00;;;1.13;;
46713;SDS011;32445;51.376;10.874;2023-10-31T07:14:36;2.90;;;1.00;;
46713;SDS011;32445;51.376;10.874;2023-10-31T07:19:36;2.40;;;1.20;;
46713;SDS011;32445;51.376;10.874;2023-10-31T07:24:36;1.80;;;1.10;;
46713;SDS011;32445;51.376;10.874;2023-10-31T07:29:40;2.65;;;1.27;;
46713;SDS011;32445;51.376;10.874;2023-10-31T07:34:41;1.75;;;0.98;;
46713;SDS011;32445;51.376;10.874;2023-10-31T07:39:42;4.32;;;0.90;;
46713;SDS011;32445;51.376;10.874;2023-10-31T07:44:42;2.67;;;0.90;;
46713;SDS011;32445;51.376;10.874;2023-10-31T07:49:43;2.90;;;1.10;;
46713;SDS011;32445;51.376;10.874;2023-10-31T07:54:43;1.47;;;0.70;;
46713;SDS011;32445;51.376;10.874;2023-10-31T07:59:43;2.55;;;0.90;;
46713;SDS011;32445;51.376;10.874;2023-10-31T08:04:44;1.02;;;0.70;;
46713;SDS011;32445;51.376;10.874;2023-10-31T08:09:45;1.40;;;0.80;;
46713;SDS011;32445;51.376;10.874;2023-10-31T08:14:45;4.83;;;0.90;;
46713;SDS011;32445;51.376;10.874;2023-10-31T08:19:46;1.85;;;0.93;;
46713;SDS011;32445;51.376;10.874;2023-10-31T08:24:47;1.45;;;1.00;;
46713;SDS011;32445;51.376;10.874;2023-10-31T08:29:48;1.15;;;0.73;;
46713;SDS011;32445;51.376;10.874;2023-10-31T08:34:48;2.57;;;0.77;;
46713;SDS011;32445;51.376;10.874;2023-10-31T08:39:48;2.28;;;0.70;;
46713;SDS011;32445;51.376;10.874;2023-10-31T08:44:51;1.53;;;0.50;;
46713;SDS011;32445;51.376;10.874;2023-10-31T08:49:52;0.88;;;0.60;;
46713;SDS011;32445;51.376;10.874;2023-10-31T08:54:52;0.50;;;0.40;;
46713;SDS011;32445;51.376;10.874;2023-10-31T08:59:52;0.93;;;0.40;;
46713;SDS011;32445;51.376;10.874;2023-10-31T09:04:53;0.67;;;0.40;;
46713;SDS011;32445;51.376;10.874;2023-10-31T09:09:53;1.77;;;0.60;;
46713;SDS011;32445;51.376;10.874;2023-10-31T09:14:53;1.43;;;0.57;;
46713;SDS011;32445;51.376;10.874;2023-10-31T09:19:54;1.50;;;0.47;;
46713;SDS011;32445;51.376;10.874;2023-10-31T09:24:54;1.90;;;0.50;;
46713;SDS011;32445;51.376;10.874;2023-10-31T09:29:55;0.83;;;0.60;;
46713;SDS011;32445;51.376;10.874;2023-10-31T09:34:55;1.33;;;0.70;;
46713;SDS011;32445;51.376;10.874;2023-10-31T09:39:55;0.77;;;0.53;;
46713;SDS011;32445;51.376;10.874;2023-10-31T09:44:56;3.72;;;0.73;;
46713;SDS011;32445;51.376;10.874;2023-10-31T09:49:56;3.10;;;0.70;;
46713;SDS011;32445;51.376;10.874;2023-10-31T09:54:56;1.00;;;0.50;;
46713;SDS011;32445;51.376;10.874;2023-10-31T09:59:57;1.27;;;0.70;;
46713;SDS011;32445;51.376;10.874;2023-10-31T10:04:58;1.50;;;0.80;;
46713;SDS011;32445;51.376;10.874;2023-10-31T10:09:59;0.82;;;0.65;;
46713;SDS011;32445;51.376;10.874;2023-10-31T10:15:00;2.03;;;0.77;;
46713;SDS011;32445;51.376;10.874;2023-10-31T10:20:07;2.97;;;0.70;;
46713;SDS011;32445;51.376;10.874;2023-10-31T10:25:18;0.55;;;0.50;;
46713;SDS011;32445;51.376;10.874;2023-10-31T10:30:18;1.10;;;0.70;;
46713;SDS011;32445;51.376;10.874;2023-10-31T10:35:18;2.43;;;0.70;;
46713;SDS011;32445;51.376;10.874;2023-10-31T10:40:19;3.20;;;1.10;;
46713;SDS011;32445;51.376;10.874;2023-10-31T10:45:19;1.80;;;0.90;;
46713;SDS011;32445;51.376;10.874;2023-10-31T10:50:20;1.92;;;0.90;;
46713;SDS011;32445;51.376;10.874;2023-10-31T10:55:28;1.50;;;1.05;;
46713;SDS011;32445;51.376;10.874;2023-10-31T11:00:30;2.10;;;1.08;;
46713;SDS011;32445;51.376;10.874;2023-10-31T11:05:30;1.33;;;1.02;;
46713;SDS011;32445;51.376;10.874;2023-10-31T11:10:32;3.33;;;0.82;;
46713;SDS011;32445;51.376;10.874;2023-10-31T11:15:33;3.53;;;1.23;;
46713;SDS011;32445;51.376;10.874;2023-10-31T11:20:34;1.92;;;1.20;;
46713;SDS011;32445;51.376;10.874;2023-10-31T11:25:38;1.60;;;0.90;;
46713;SDS011;32445;51.376;10.874;2023-10-31T11:30:43;1.95;;;0.90;;
46713;SDS011;32445;51.376;10.874;2023-10-31T11:41:07;2.35;;;1.10;;
46713;SDS011;32445;51.376;10.874;2023-10-31T11:46:18;1.17;;;0.93;;
46713;SDS011;32445;51.376;10.874;2023-10-31T11:51:20;1.00;;;0.73;;
46713;SDS011;32445;51.376;10.874;2023-10-31T11:56:21;2.43;;;1.00;;
46713;SDS011;32445;51.376;10.874;2023-10-31T12:01:22;1.67;;;0.90;;
46713;SDS011;32445;51.376;10.874;2023-10-31T12:06:22;2.93;;;1.00;;
46713;SDS011;32445;51.376;10.874;2023-10-31T12:11:23;1.40;;;0.97;;
46713;SDS011;32445;51.376;10.874;2023-10-31T12:16:24;2.50;;;1.30;;
46713;SDS011;32445;51.376;10.874;2023-10-31T12:21:36;1.17;;;0.80;;
46713;SDS011;32445;51.376;10.874;2023-10-31T12:26:46;2.92;;;1.00;;
46713;SDS011;32445;51.376;10.874;2023-10-31T12:31:48;1.07;;;0.87;;
46713;SDS011;32445;51.376;10.874;2023-10-31T12:36:53;2.38;;;1.02;;
46713;SDS011;32445;51.376;10.874;2023-10-31T12:41:56;1.15;;;0.90;;
46713;SDS011;32445;51.376;10.874;2023-10-31T12:46:58;2.33;;;1.20;;
46713;SDS011;32445;51.376;10.874;2023-10-31T12:52:03;2.15;;;1.00;;
46713;SDS011;32445;51.376;10.874;2023-10-31T12:57:05;1.60;;;1.10;;
46713;SDS011;32445;51.376;10.874;2023-10-31T13:02:09;1.70;;;1.20;;
46713;SDS011;32445;51.376;10.874;2023-10-31T13:07:20;1.65;;;1.10;;
46713;SDS011;32445;51.376;10.874;2023-10-31T13:12:26;2.85;;;1.15;;
46713;SDS011;32445;51.376;10.874;2023-10-31T13:17:30;1.80;;;1.23;;
46713;SDS011;32445;51.376;10.874;2023-10-31T13:22:32;1.23;;;0.90;;
46713;SDS011;32445;51.376;10.874;2023-10-31T13:27:32;1.70;;;1.20;;
46713;SDS011;32445;51.376;10.874;2023-10-31T13:32:36;2.97;;;1.80;;
46713;SDS011;32445;51.376;10.874;2023-10-31T13:37:37;1.70;;;1.45;;
46713;SDS011;32445;51.376;10.874;2023-10-31T13:42:38;3.37;;;1.10;;
46713;SDS011;32445;51.376;10.874;2023-10-31T13:47:38;3.30;;;1.17;;
46713;SDS011;32445;51.376;10.874;2023-10-31T13:52:39;1.73;;;1.00;;
46713;SDS011;32445;51.376;10.874;2023-10-31T13:57:39;1.30;;;1.00;;
46713;SDS011;32445;51.376;10.874;2023-10-31T14:02:39;3.13;;;1.30;;
46713;SDS011;32445;51.376;10.874;2023-10-31T14:07:40;3.15;;;1.10;;
46713;SDS011;32445;51.376;10.874;2023-10-31T14:12:40;0.90;;;0.70;;
46713;SDS011;32445;51.376;10.874;2023-10-31T14:17:40;1.60;;;0.97;;
46713;SDS011;32445;51.376;10.874;2023-10-31T14:22:46;1.50;;;0.90;;
46713;SDS011;32445;51.376;10.874;2023-10-31T14:27:47;2.15;;;1.27;;
46713;SDS011;32445;51.376;10.874;2023-10-31T14:32:47;4.45;;;1.35;;
46713;SDS011;32445;51.376;10.874;2023-10-31T14:37:48;1.90;;;1.20;;
46713;SDS011;32445;51.376;10.874;2023-10-31T14:42:48;1.90;;;1.30;;
46713;SDS011;32445;51.376;10.874;2023-10-31T14:47:49;2.90;;;1.10;;
46713;SDS011;32445;51.376;10.874;2023-10-31T14:52:49;1.63;;;1.27;;
46713;SDS011;32445;51.376;10.874;2023-10-31T14:57:50;4.40;;;2.10;;
46713;SDS011;32445;51.376;10.874;2023-10-31T15:02:51;4.38;;;1.48;;
46713;SDS011;32445;51.376;10.874;2023-10-31T15:07:51;4.80;;;1.90;;
46713;SDS011;32445;51.376;10.874;2023-10-31T15:12:52;2.67;;;1.52;;
46713;SDS011;32445;51.376;10.874;2023-10-31T15:17:52;4.43;;;1.53;;
46713;SDS011;32445;51.376;10.874;2023-10-31T15:22:53;2.50;;;1.90;;
46713;SDS011;32445;51.376;10.874;2023-10-31T15:27:54;5.05;;;1.67;;
46713;SDS011;32445;51.376;10.874;2023-10-31T15:32:54;2.90;;;1.52;;
46713;SDS011;32445;51.376;10.874;2023-10-31T15:37:55;1.90;;;1.17;;
46713;SDS011;32445;51.376;10.874;2023-10-31T15:42:55;4.00;;;2.00;;
46713;SDS011;32445;51.376;10.874;2023-10-31T15:47:55;3.77;;;1.73;;
46713;SDS011;32445;51.376;10.874;2023-10-31T15:52:56;5.90;;;2.97;;
46713;SDS011;32445;51.376;10.874;2023-10-31T15:57:56;3.40;;;2.40;;
46713;SDS011;32445;51.376;10.874;2023-10-31T16:02:57;3.17;;;2.03;;
46713;SDS011;32445;51.376;10.874;2023-10-31T16:07:57;3.70;;;2.20;;
46713;SDS011;32445;51.376;10.874;2023-10-31T16:12:58;8.93;;;5.33;;
46713;SDS011;32445;51.376;10.874;2023-10-31T16:17:58;4.33;;;3.33;;
46713;SDS011;32445;51.376;10.874;2023-10-31T16:23:00;5.35;;;2.10;;
46713;SDS011;32445;51.376;10.874;2023-10-31T16:28:00;3.83;;;2.77;;
46713;SDS011;32445;51.376;10.874;2023-10-31T16:33:00;3.97;;;2.30;;
46713;SDS011;32445;51.376;10.874;2023-10-31T16:38:01;4.07;;;1.90;;
46713;SDS011;32445;51.376;10.874;2023-10-31T16:43:01;4.82;;;2.20;;
46713;SDS011;32445;51.376;10.874;2023-10-31T16:48:02;15.70;;;2.73;;
46713;SDS011;32445;51.376;10.874;2023-10-31T16:53:02;6.47;;;2.27;;
46713;SDS011;32445;51.376;10.874;2023-10-31T16:58:09;4.13;;;2.03;;
46713;SDS011;32445;51.376;10.874;2023-10-31T17:03:09;5.95;;;2.08;;
46713;SDS011;32445;51.376;10.874;2023-10-31T17:08:13;5.78;;;2.65;;
46713;SDS011;32445;51.376;10.874;2023-10-31T17:13:14;4.95;;;1.65;;
46713;SDS011;32445;51.376;10.874;2023-10-31T17:18:15;3.70;;;1.93;;
46713;SDS011;32445;51.376;10.874;2023-10-31T17:23:16;3.53;;;1.83;;
46713;SDS011;32445;51.376;10.874;2023-10-31T17:28:16;5.57;;;1.80;;
46713;SDS011;32445;51.376;10.874;2023-10-31T17:33:17;3.27;;;1.90;;
46713;SDS011;32445;51.376;10.874;2023-10-31T17:38:17;4.80;;;2.00;;
46713;SDS011;32445;51.376;10.874;2023-10-31T17:48:22;6.05;;;2.60;;
46713;SDS011;32445;51.376;10.874;2023-10-31T17:53:22;6.43;;;2.70;;
46713;SDS011;32445;51.376;10.874;2023-10-31T17:58:23;6.77;;;2.20;;
46713;SDS011;32445;51.376;10.874;2023-10-31T18:03:23;3.47;;;2.03;;
46713;SDS011;32445;51.376;10.874;2023-10-31T18:08:23;3.63;;;2.53;;
46713;SDS011;32445;51.376;10.874;2023-10-31T18:13:24;5.47;;;1.90;;
46713;SDS011;32445;51.376;10.874;2023-10-31T18:18:24;4.57;;;1.93;;
46713;SDS011;32445;51.376;10.874;2023-10-31T18:23:24;3.77;;;1.80;;
46713;SDS011;32445;51.376;10.874;2023-10-31T18:28:25;5.03;;;1.53;;
46713;SDS011;32445;51.376;10.874;2023-10-31T18:33:25;4.73;;;1.80;;
46713;SDS011;32445;51.376;10.874;2023-10-31T18:38:25;3.43;;;1.93;;
46713;SDS011;32445;51.376;10.874;2023-10-31T18:43:26;3.10;;;1.98;;
46713;SDS011;32445;51.376;10.874;2023-10-31T18:48:27;5.07;;;2.00;;
46713;SDS011;32445;51.376;10.874;2023-10-31T18:53:27;4.60;;;1.93;;
46713;SDS011;32445;51.376;10.874;2023-10-31T18:58:27;5.90;;;2.10;;
46713;SDS011;32445;51.376;10.874;2023-10-31T19:03:28;6.40;;;1.80;;
46713;SDS011;32445;51.376;10.874;2023-10-31T19:08:28;6.63;;;2.37;;
46713;SDS011;32445;51.376;10.874;2023-10-31T19:13:29;4.15;;;1.92;;
46713;SDS011;32445;51.376;10.874;2023-10-31T19:18:29;3.40;;;1.75;;
46713;SDS011;32445;51.376;10.874;2023-10-31T19:23:30;3.07;;;1.70;;
46713;SDS011;32445;51.376;10.874;2023-10-31T19:28:30;3.47;;;2.20;;
46713;SDS011;32445;51.376;10.874;2023-10-31T19:33:30;6.30;;;2.17;;
46713;SDS011;32445;51.376;10.874;2023-10-31T19:38:31;4.23;;;1.73;;
46713;SDS011;32445;51.376;10.874;2023-10-31T19:43:31;3.90;;;1.60;;
46713;SDS011;32445;51.376;10.874;2023-10-31T19:48:33;4.35;;;2.00;;
46713;SDS011;32445;51.376;10.874;2023-10-31T19:53:35;6.57;;;1.83;;
46713;SDS011;32445;51.376;10.874;2023-10-31T19:58:36;5.97;;;1.80;;
46713;SDS011;32445;51.376;10.874;2023-10-31T20:03:36;5.20;;;1.90;;
46713;SDS011;32445;51.376;10.874;2023-10-31T20:08:37;4.03;;;1.70;;
46713;SDS011;32445;51.376;10.874;2023-10-31T20:13:37;4.47;;;1.65;;
46713;SDS011;32445;51.376;10.874;2023-10-31T20:18:38;3.92;;;1.88;;
46713;SDS011;32445;51.376;10.874;2023-10-31T20:23:38;3.57;;;1.77;;
46713;SDS011;32445;51.376;10.874;2023-10-31T20:28:39;4.27;;;1.90;;
46713;SDS011;32445;51.376;10.874;2023-10-31T20:33:41;4.47;;;2.13;;
46713;SDS011;32445;51.376;10.874;2023-10-31T20:38:42;6.25;;;1.88;;
46713;SDS011;32445;51.376;10.874;2023-10-31T20:43:43;4.85;;;1.77;;
46713;SDS011;32445;51.376;10.874;2023-10-31T20:48:43;6.47;;;3.03;;
46713;SDS011;32445;51.376;10.874;2023-10-31T20:53:43;3.63;;;1.80;;
46713;SDS011;32445;51.376;10.874;2023-10-31T20:58:44;4.93;;;2.20;;
46713;SDS011;32445;51.376;10.874;2023-10-31T21:03:45;6.28;;;2.00;;
46713;SDS011;32445;51.376;10.874;2023-10-31T21:08:45;4.40;;;2.10;;
46713;SDS011;32445;51.376;10.874;2023-10-31T21:13:46;4.63;;;2.37;;
46713;SDS011;32445;51.376;10.874;2023-10-31T21:18:46;4.00;;;2.20;;
46713;SDS011;32445;51.376;10.874;2023-10-31T21:23:46;4.57;;;2.80;;
46713;SDS011;32445;51.376;10.874;2023-10-31T21:28:47;5.03;;;2.67;;
46713;SDS011;32445;51.376;10.874;2023-10-31T21:33:47;6.97;;;2.20;;
46713;SDS011;32445;51.376;10.874;2023-10-31T21:38:48;3.27;;;1.87;;
46713;SDS011;32445;51.376;10.874;2023-10-31T21:43:49;5.00;;;2.58;;
46713;SDS011;32445;51.376;10.874;2023-10-31T21:48:49;4.37;;;2.80;;
46713;SDS011;32445;51.376;10.874;2023-10-31T21:53:50;8.43;;;3.03;;
46713;SDS011;32445;51.376;10.874;2023-10-31T21:58:50;4.33;;;1.93;;
46713;SDS011;32445;51.376;10.874;2023-10-31T22:03:51;4.73;;;2.10;;
46713;SDS011;32445;51.376;10.874;2023-10-31T22:08:51;3.77;;;2.00;;
46713;SDS011;32445;51.376;10.874;2023-10-31T22:13:53;7.28;;;1.95;;
46713;SDS011;32445;51.376;10.874;2023-10-31T22:18:54;9.43;;;3.17;;
46713;SDS011;32445;51.376;10.874;2023-10-31T22:23:54;2.57;;;1.50;;
46713;SDS011;32445;51.376;10.874;2023-10-31T22:28:54;5.80;;;1.30;;
46713;SDS011;32445;51.376;10.874;2023-10-31T22:33:55;7.37;;;2.53;;
46713;SDS011;32445;51.376;10.874;2023-10-31T22:38:55;6.73;;;2.73;;
46713;SDS011;32445;51.376;10.874;2023-10-31T22:43:56;5.77;;;2.63;;
46713;SDS011;32445;51.376;10.874;2023-10-31T22:48:56;5.23;;;2.20;;
46713;SDS011;32445;51.376;10.874;2023-10-31T22:53:56;5.90;;;2.60;;
46713;SDS011;32445;51.376;10.874;2023-10-31T22:58:57;6.38;;;2.17;;
46713;SDS011;32445;51.376;10.874;2023-10-31T23:03:57;3.17;;;2.00;;
46713;SDS011;32445;51.376;10.874;2023-10-31T23:08:57;5.80;;;2.43;;
46713;SDS011;32445;51.376;10.874;2023-10-31T23:13:58;3.83;;;2.80;;
46713;SDS011;32445;51.376;10.874;2023-10-31T23:18:58;6.07;;;2.70;;
46713;SDS011;32445;51.376;10.874;2023-10-31T23:23:59;3.73;;;2.70;;
46713;SDS011;32445;51.376;10.874;2023-10-31T23:28:59;6.17;;;3.13;;
46713;SDS011;32445;51.376;10.874;2023-10-31T23:33:59;8.82;;;3.40;;
46713;SDS011;32445;51.376;10.874;2023-10-31T23:39:00;7.00;;;2.73;;
46713;SDS011;32445;51.376;10.874;2023-10-31T23:44:00;5.37;;;2.43;;
46713;SDS011;32445;51.376;10.874;2023-10-31T23:49:00;6.17;;;2.20;;
46713;SDS011;32445;51.376;10.874;2023-10-31T23:54:01;3.73;;;2.20;;
46713;SDS011;32445;51.376;10.874;2023-10-31T23:59:01;4.43;;;2.47;;
